Time;durP1;ratioP1;P1;durP2;ratioP2;P2;SDS_P1;SDS_P2;PMS_P1;PMS_P2;Temp;Humidity;BMP_temperature;BMP_pressure;BME280_temperature;BME280_humidity;BME280_pressure;Samples;Min_cycle;Max_cycle;Signal;HPM_P1;HPM_P2
2022/11/01 00:01:14;;;;;;;7.97;4.82;;;16.00;78.70;;;;;;5049635;28;20036;-69
2022/11/01 00:03:40;;;;;;;9.95;5.60;;;16.00;78.80;;;;;;5035239;28;20061;-68
2022/11/01 00:06:05;;;;;;;7.03;4.95;;;16.00;78.70;;;;;;5049130;28;20104;-68
2022/11/01 00:08:31;;;;;;;11.88;5.78;;;16.10;78.80;;;;;;5035353;28;20399;-68
2022/11/01 00:11:09;;;;;;;7.22;5.20;;;16.00;78.70;;;;;;5047606;28;20021;-68
2022/11/01 00:13:34;;;;;;;8.63;5.18;;;16.00;78.90;;;;;;5045730;28;20095;-70
2022/11/01 00:16:00;;;;;;;7.45;4.05;;;16.00;78.90;;;;;;5047245;28;20642;-69
2022/11/01 00:18:26;;;;;;;9.05;5.22;;;16.10;79.00;;;;;;5032354;28;20021;-69
2022/11/01 00:20:52;;;;;;;11.10;4.65;;;16.10;78.90;;;;;;5037447;28;20025;-69
2022/11/01 00:23:17;;;;;;;9.13;5.13;;;16.10;78.80;;;;;;5038905;28;20034;-68
2022/11/01 00:25:43;;;;;;;10.52;4.68;;;16.10;78.60;;;;;;5039666;28;20040;-70
2022/11/01 00:28:08;;;;;;;9.85;5.57;;;16.20;78.60;;;;;;5042807;28;20121;-70
2022/11/01 00:30:38;;;;;;;12.10;5.05;;;16.20;78.50;;;;;;5037978;28;20033;-69
2022/11/01 00:33:04;;;;;;;7.80;4.90;;;16.20;78.50;;;;;;5038661;28;20032;-69
2022/11/01 00:35:35;;;;;;;8.05;5.30;;;16.30;78.70;;;;;;5039100;28;20021;-69
2022/11/01 00:38:01;;;;;;;9.02;5.35;;;16.30;78.80;;;;;;5046935;28;20024;-70
2022/11/01 00:40:27;;;;;;;7.63;4.60;;;16.30;78.70;;;;;;5038061;28;20032;-70
2022/11/01 00:42:52;;;;;;;9.35;5.82;;;16.30;78.90;;;;;;5046121;28;20021;-69
2022/11/01 00:45:18;;;;;;;9.65;4.95;;;16.30;78.80;;;;;;5039429;28;20435;-69
2022/11/01 00:47:47;;;;;;;6.25;4.30;;;16.30;78.80;;;;;;5049282;28;20468;-69
2022/11/01 00:50:13;;;;;;;7.63;3.80;;;16.30;78.90;;;;;;5047902;28;20051;-69
2022/11/01 00:52:38;;;;;;;10.35;4.60;;;16.30;79.00;;;;;;5047203;28;20026;-69
2022/11/01 00:55:04;;;;;;;8.27;5.10;;;16.30;79.20;;;;;;5040125;28;20033;-69
2022/11/01 00:57:30;;;;;;;8.05;4.80;;;16.30;79.10;;;;;;5049332;28;20048;-69
2022/11/01 00:59:55;;;;;;;7.65;4.65;;;16.40;79.20;;;;;;5041776;28;20499;-68
2022/11/01 01:02:21;;;;;;;5.75;3.47;;;16.40;79.30;;;;;;5046991;28;20036;-68
2022/11/01 01:04:48;;;;;;;7.90;3.90;;;16.40;79.30;;;;;;5034619;28;20061;-68
2022/11/01 01:07:13;;;;;;;9.40;4.45;;;16.50;79.40;;;;;;5032070;28;20021;-69
2022/11/01 01:09:39;;;;;;;8.68;4.80;;;16.40;79.40;;;;;;5038117;28;20084;-69
2022/11/01 01:12:04;;;;;;;7.47;4.85;;;16.50;79.60;;;;;;5032810;28;20017;-69
2022/11/01 01:14:30;;;;;;;8.77;4.25;;;16.50;79.60;;;;;;5043429;28;20029;-69
2022/11/01 01:16:56;;;;;;;5.18;3.67;;;16.50;79.60;;;;;;5047818;28;20021;-69
2022/11/01 01:19:21;;;;;;;7.72;4.78;;;16.60;79.70;;;;;;5043539;28;20518;-69
2022/11/01 01:21:47;;;;;;;12.10;5.50;;;16.60;79.60;;;;;;5035758;28;20120;-68
2022/11/01 01:24:13;;;;;;;10.43;5.07;;;16.60;79.40;;;;;;5042709;28;20163;-68
2022/11/01 01:26:38;;;;;;;8.25;4.47;;;16.60;79.40;;;;;;5039324;28;20487;-68
2022/11/01 01:29:04;;;;;;;8.75;4.72;;;16.70;79.50;;;;;;5041054;28;20037;-69
2022/11/01 01:31:29;;;;;;;8.00;4.40;;;16.70;79.40;;;;;;5043497;28;20030;-69
2022/11/01 01:33:57;;;;;;;8.23;4.50;;;16.70;79.50;;;;;;5034644;28;20035;-69
2022/11/01 01:36:23;;;;;;;7.88;4.85;;;16.70;79.40;;;;;;5042510;28;20030;-68
2022/11/01 01:38:52;;;;;;;8.40;4.60;;;16.70;79.40;;;;;;5036464;28;20068;-69
2022/11/01 01:44:41;;;;;;;8.90;4.20;;;16.70;79.60;;;;;;5042847;28;20171;-69
2022/11/01 01:47:08;;;;;;;9.35;4.72;;;16.70;79.70;;;;;;5036054;28;20052;-69
2022/11/01 01:49:34;;;;;;;11.57;5.55;;;16.70;79.70;;;;;;5040044;28;20021;-69
2022/11/01 01:52:00;;;;;;;9.27;4.85;;;16.70;79.70;;;;;;5031402;28;20033;-69
2022/11/01 01:54:26;;;;;;;8.57;4.20;;;16.70;79.70;;;;;;5036265;28;20495;-68
2022/11/01 01:56:51;;;;;;;7.05;4.07;;;16.70;79.70;;;;;;5039831;28;20022;-68
2022/11/01 01:59:17;;;;;;;10.77;5.00;;;16.70;79.80;;;;;;5044103;28;20049;-68
2022/11/01 02:01:43;;;;;;;5.88;4.15;;;16.70;79.90;;;;;;5030259;28;20044;-68
2022/11/01 02:04:18;;;;;;;6.57;4.32;;;16.70;80.00;;;;;;5039579;28;20135;-68
2022/11/01 02:06:44;;;;;;;8.77;4.45;;;16.70;80.10;;;;;;5038897;28;20029;-69
2022/11/01 02:09:11;;;;;;;8.00;4.50;;;16.70;80.20;;;;;;5040486;28;20099;-68
2022/11/01 02:11:37;;;;;;;7.40;4.28;;;16.70;80.30;;;;;;5043166;28;20017;-68
2022/11/01 02:14:03;;;;;;;7.85;4.00;;;16.70;81.00;;;;;;5041951;28;20052;-69
2022/11/01 02:16:56;;;;;;;7.00;4.10;;;16.60;80.30;;;;;;5030323;28;20117;-68
2022/11/01 02:19:50;;;;;;;8.57;4.40;;;16.60;80.50;;;;;;5041363;28;20040;-69
2022/11/01 02:23:10;;;;;;;5.88;4.25;;;16.60;80.60;;;;;;5029329;28;20095;-68
2022/11/01 02:25:45;;;;;;;7.28;4.00;;;16.60;80.60;;;;;;4975114;28;20100;-68
2022/11/01 02:28:39;;;;;;;7.28;5.03;;;16.60;80.70;;;;;;5025787;28;20045;-68
2022/11/01 02:31:48;;;;;;;8.90;4.70;;;16.60;80.90;;;;;;5031099;28;20127;-68
2022/11/01 02:34:24;;;;;;;8.00;4.60;;;16.60;81.00;;;;;;5041086;28;20099;-67
2022/11/01 02:37:14;;;;;;;7.70;4.47;;;16.60;81.10;;;;;;5045598;28;20116;-69
2022/11/01 02:39:47;;;;;;;6.55;3.90;;;16.60;81.20;;;;;;5035225;28;20025;-70
2022/11/01 02:42:29;;;;;;;7.85;4.28;;;16.60;81.30;;;;;;5038584;28;20025;-71
2022/11/01 02:45:07;;;;;;;9.97;5.10;;;16.60;81.30;;;;;;5050568;28;20025;-71
2022/11/01 02:47:33;;;;;;;6.50;4.50;;;16.60;81.40;;;;;;5039613;28;20037;-70
2022/11/01 02:50:06;;;;;;;7.13;3.63;;;16.70;81.50;;;;;;5039344;28;20488;-70
2022/11/01 02:52:38;;;;;;;7.60;4.53;;;16.70;81.50;;;;;;5049876;28;20033;-70
2022/11/01 02:55:29;;;;;;;9.02;5.28;;;16.70;81.60;;;;;;5040005;28;20585;-70
2022/11/01 02:58:00;;;;;;;9.73;5.03;;;16.70;81.70;;;;;;5043763;28;20021;-70
2022/11/01 03:00:34;;;;;;;8.52;4.18;;;16.80;81.70;;;;;;5030890;28;20120;-71
2022/11/01 03:03:09;;;;;;;7.03;4.55;;;16.80;81.80;;;;;;5031940;28;20068;-70
2022/11/01 03:05:38;;;;;;;8.68;4.15;;;16.80;81.80;;;;;;5044073;28;20025;-70
2022/11/01 03:08:10;;;;;;;9.57;4.05;;;16.90;81.90;;;;;;5045072;28;20029;-70
2022/11/01 03:10:56;;;;;;;7.55;3.92;;;16.90;82.00;;;;;;5052349;28;20060;-70
2022/11/01 03:13:33;;;;;;;9.57;4.85;;;16.90;82.00;;;;;;5044056;28;20632;-69
2022/11/01 03:16:15;;;;;;;9.20;4.57;;;17.00;82.10;;;;;;5035841;28;20022;-69
2022/11/01 03:18:46;;;;;;;;;;;17.00;82.30;;;;;;5032426;28;20037;-68
2022/11/01 03:21:20;;;;;;;8.18;4.80;;;17.00;82.20;;;;;;5039427;28;20008;-69
2022/11/01 03:23:53;;;;;;;8.55;4.90;;;17.00;82.30;;;;;;5029425;28;20033;-69
2022/11/01 03:26:26;;;;;;;9.57;5.13;;;17.00;82.30;;;;;;5038699;28;20035;-68
2022/11/01 03:29:00;;;;;;;8.43;4.57;;;17.00;82.50;;;;;;5045657;28;20039;-69
2022/11/01 03:31:30;;;;;;;5.65;3.90;;;17.10;82.50;;;;;;5043324;28;20541;-70
2022/11/01 03:34:00;;;;;;;9.30;4.25;;;17.10;82.40;;;;;;5033766;28;20072;-70
2022/11/01 03:36:34;;;;;;;8.50;4.10;;;17.20;82.40;;;;;;5043722;28;20036;-69
2022/11/01 03:39:10;;;;;;;6.63;3.70;;;17.20;82.40;;;;;;5038470;28;20040;-69
2022/11/01 03:41:40;;;;;;;9.00;4.13;;;17.20;82.30;;;;;;5050981;28;20442;-69
2022/11/01 03:44:08;;;;;;;8.82;4.18;;;17.20;82.30;;;;;;5033962;28;20014;-69
2022/11/01 03:46:34;;;;;;;7.57;4.00;;;17.20;82.20;;;;;;5043002;28;20053;-69
2022/11/01 03:48:59;;;;;;;6.53;4.05;;;17.20;82.20;;;;;;5034845;28;20025;-69
2022/11/01 03:51:25;;;;;;;7.13;3.63;;;17.20;82.10;;;;;;5046506;28;20078;-69
2022/11/01 03:53:50;;;;;;;5.82;3.67;;;17.20;82.10;;;;;;5053309;28;20151;-68
2022/11/01 03:56:16;;;;;;;8.38;4.22;;;17.20;82.00;;;;;;5048154;28;20063;-68
2022/11/01 03:58:43;;;;;;;6.85;3.90;;;17.30;82.10;;;;;;5039649;28;20121;-69
2022/11/01 04:01:09;;;;;;;9.68;4.43;;;17.30;82.00;;;;;;5034710;28;20049;-69
2022/11/01 04:03:35;;;;;;;6.00;3.50;;;17.30;81.80;;;;;;5052153;28;20127;-69
2022/11/01 04:06:01;;;;;;;6.53;3.40;;;17.30;81.80;;;;;;5046161;28;20074;-69
2022/11/01 04:08:26;;;;;;;8.07;4.10;;;17.30;81.70;;;;;;5051844;28;20125;-69
2022/11/01 04:10:52;;;;;;;9.13;4.40;;;17.30;81.70;;;;;;5049289;28;20025;-69
2022/11/01 04:13:17;;;;;;;5.85;3.90;;;17.40;81.60;;;;;;5053244;28;20061;-71
2022/11/01 04:21:13;;;;;;;8.23;3.45;;;17.40;81.10;;;;;;5040891;28;20063;-69
2022/11/01 04:23:40;;;;;;;7.68;3.80;;;17.40;81.10;;;;;;5047776;28;20040;-69
2022/11/01 04:26:09;;;;;;;7.05;3.78;;;17.30;80.90;;;;;;5053732;28;20130;-69
2022/11/01 04:28:35;;;;;;;4.78;2.90;;;17.30;80.70;;;;;;5042420;28;20061;-69
2022/11/01 04:31:00;;;;;;;6.18;3.28;;;17.30;80.10;;;;;;5045963;28;20072;-69
2022/11/01 04:33:26;;;;;;;6.45;2.90;;;17.30;80.00;;;;;;5042124;28;20091;-69
2022/11/01 04:35:51;;;;;;;4.30;2.65;;;17.30;79.80;;;;;;5049327;28;20035;-70
2022/11/01 04:38:17;;;;;;;4.72;2.72;;;17.30;79.50;;;;;;5040591;28;20025;-69
2022/11/01 04:40:42;;;;;;;5.28;3.00;;;17.20;79.60;;;;;;5032032;28;20026;-69
2022/11/01 04:43:09;;;;;;;4.70;2.53;;;17.20;79.40;;;;;;5032545;28;20079;-68
2022/11/01 04:45:34;;;;;;;5.10;2.30;;;17.20;79.40;;;;;;5042314;28;20091;-69
2022/11/01 04:48:02;;;;;;;3.05;2.20;;;17.10;79.30;;;;;;5044313;28;20037;-69
2022/11/01 04:50:28;;;;;;;3.53;1.85;;;17.00;78.70;;;;;;5044735;28;20037;-70
2022/11/01 04:52:53;;;;;;;2.17;1.30;;;17.00;78.40;;;;;;5032705;28;20026;-69
2022/11/01 04:55:19;;;;;;;3.65;1.30;;;16.90;77.60;;;;;;5049179;28;20032;-70
2022/11/01 04:57:44;;;;;;;1.30;1.00;;;16.80;77.10;;;;;;5046717;28;20052;-70
2022/11/01 05:00:11;;;;;;;4.70;1.20;;;16.70;76.60;;;;;;5045061;28;20053;-70
2022/11/01 05:02:37;;;;;;;1.90;0.93;;;16.70;76.50;;;;;;5036193;28;20037;-70
2022/11/01 05:05:05;;;;;;;1.75;1.00;;;16.60;76.20;;;;;;5030963;28;20083;-70
2022/11/01 05:07:30;;;;;;;2.03;1.20;;;16.50;75.90;;;;;;5033034;28;20448;-70
2022/11/01 05:09:56;;;;;;;1.90;0.90;;;16.50;74.90;;;;;;5039267;28;20090;-69
2022/11/01 05:12:22;;;;;;;4.00;1.05;;;16.40;74.80;;;;;;5046905;28;20032;-69
2022/11/01 05:14:47;;;;;;;2.53;0.90;;;16.40;74.60;;;;;;5038268;28;20100;-70
2022/11/01 05:17:13;;;;;;;2.13;1.00;;;16.30;74.60;;;;;;5048430;28;20029;-69
2022/11/01 05:19:38;;;;;;;2.65;1.08;;;16.20;74.10;;;;;;5046292;28;20026;-69
2022/11/01 05:22:04;;;;;;;2.17;1.00;;;16.20;74.40;;;;;;5034249;28;20060;-69
2022/11/01 05:24:30;;;;;;;4.32;1.10;;;16.10;74.50;;;;;;5043666;28;20033;-69
2022/11/01 05:26:55;;;;;;;2.53;0.90;;;16.10;74.60;;;;;;5031592;28;20049;-70
2022/11/01 05:29:21;;;;;;;2.00;0.90;;;16.00;74.00;;;;;;5047013;28;20064;-70
2022/11/01 05:31:46;;;;;;;1.73;1.00;;;16.00;74.00;;;;;;5032738;28;20495;-70
2022/11/01 05:34:12;;;;;;;3.00;0.90;;;16.00;74.40;;;;;;5062192;28;20451;-69
2022/11/01 05:36:38;;;;;;;1.40;1.00;;;15.90;74.60;;;;;;5044484;28;20025;-70
2022/11/01 05:39:03;;;;;;;2.00;0.95;;;15.90;74.80;;;;;;5047053;28;20049;-69
2022/11/01 05:41:29;;;;;;;1.38;0.77;;;15.80;74.60;;;;;;5046448;28;20064;-70
2022/11/01 05:43:54;;;;;;;3.47;1.10;;;15.80;74.50;;;;;;5047330;28;20029;-67
2022/11/01 05:46:20;;;;;;;2.80;0.80;;;15.70;74.20;;;;;;5031654;28;20045;-67
2022/11/01 05:48:45;;;;;;;2.10;0.90;;;15.70;74.60;;;;;;5041366;28;20035;-68
2022/11/01 05:51:11;;;;;;;1.67;0.80;;;15.70;74.30;;;;;;5044740;28;20037;-67
2022/11/01 05:53:37;;;;;;;2.03;0.70;;;15.60;74.20;;;;;;5033605;28;20117;-68
2022/11/01 05:56:03;;;;;;;2.60;0.90;;;15.60;74.50;;;;;;5035158;28;20421;-68
2022/11/01 05:58:29;;;;;;;2.33;0.88;;;15.60;73.70;;;;;;5041284;28;20113;-68
2022/11/01 06:01:02;;;;;;;1.40;0.90;;;15.60;73.70;;;;;;5044343;28;20017;-68
2022/11/01 06:03:28;;;;;;;3.05;1.02;;;15.60;73.80;;;;;;5042670;28;20532;-68
2022/11/01 06:05:54;;;;;;;3.17;1.00;;;15.60;73.30;;;;;;5041951;28;20070;-69
2022/11/01 06:08:19;;;;;;;3.22;0.90;;;15.50;72.80;;;;;;5051936;28;20037;-68
2022/11/01 06:10:45;;;;;;;1.35;0.82;;;15.50;72.70;;;;;;5036447;28;20036;-68
2022/11/01 06:13:10;;;;;;;3.13;1.00;;;15.50;73.00;;;;;;5043663;28;20435;-68
2022/11/01 06:15:36;;;;;;;1.52;0.85;;;15.40;72.90;;;;;;5048136;28;20075;-68
2022/11/01 06:18:02;;;;;;;2.55;0.85;;;15.40;73.00;;;;;;5044698;28;20029;-68
2022/11/01 06:20:29;;;;;;;2.45;1.00;;;15.40;73.10;;;;;;5043101;28;20025;-69
2022/11/01 06:22:56;;;;;;;3.45;1.10;;;15.30;72.50;;;;;;5044331;28;20191;-68
2022/11/01 06:25:22;;;;;;;4.50;1.33;;;15.30;71.80;;;;;;5042704;28;20109;-69
2022/11/01 06:27:48;;;;;;;2.63;0.85;;;15.20;71.50;;;;;;5036970;28;20059;-69
2022/11/01 06:30:14;;;;;;;3.00;1.10;;;15.20;70.70;;;;;;5046892;28;20122;-69
2022/11/01 06:32:39;;;;;;;4.10;1.00;;;15.10;70.00;;;;;;5037513;28;20224;-69
2022/11/01 06:35:05;;;;;;;4.18;1.00;;;15.10;69.60;;;;;;5043159;28;20679;-69
2022/11/01 06:37:31;;;;;;;3.35;1.30;;;15.00;69.60;;;;;;5047645;28;20109;-69
2022/11/01 06:39:57;;;;;;;2.65;1.00;;;15.10;69.90;;;;;;5047514;28;20060;-69
2022/11/01 06:42:22;;;;;;;3.55;0.90;;;15.10;70.40;;;;;;5044943;28;20111;-69
2022/11/01 06:44:48;;;;;;;4.13;1.20;;;15.10;70.20;;;;;;5030955;28;20025;-69
2022/11/01 06:47:13;;;;;;;4.10;1.17;;;15.10;70.40;;;;;;5043779;28;20036;-69
2022/11/01 06:49:39;;;;;;;2.95;1.25;;;15.10;69.90;;;;;;5044050;28;20025;-69
2022/11/01 06:52:05;;;;;;;3.58;1.30;;;15.10;70.10;;;;;;5044772;28;20032;-69
2022/11/01 06:54:31;;;;;;;3.92;1.23;;;15.00;69.80;;;;;;5038135;28;20036;-69
2022/11/01 06:56:57;;;;;;;3.63;1.00;;;15.00;69.90;;;;;;5035477;28;20025;-68
2022/11/01 06:59:23;;;;;;;4.20;1.40;;;15.00;70.20;;;;;;5043481;28;20529;-69
2022/11/01 07:01:50;;;;;;;6.22;1.30;;;14.90;70.00;;;;;;5036130;28;20029;-69
2022/11/01 07:04:16;;;;;;;5.65;1.30;;;14.90;70.10;;;;;;5046676;28;20564;-69
2022/11/01 07:06:42;;;;;;;3.05;1.20;;;14.80;70.30;;;;;;5035987;28;20065;-69
2022/11/01 07:09:08;;;;;;;4.63;1.77;;;14.80;69.90;;;;;;5041995;28;20068;-69
2022/11/01 07:11:33;;;;;;;3.65;1.10;;;14.80;70.20;;;;;;5045601;28;20134;-69
2022/11/01 07:13:59;;;;;;;4.88;1.40;;;14.80;70.50;;;;;;5035175;28;20037;-69
2022/11/01 07:16:25;;;;;;;6.80;1.60;;;14.90;70.50;;;;;;5035662;28;20360;-68
2022/11/01 07:18:51;;;;;;;8.75;1.70;;;14.80;70.00;;;;;;5034295;28;20404;-69
2022/11/01 07:21:16;;;;;;;5.68;1.45;;;14.80;69.70;;;;;;5034404;28;20033;-69
2022/11/01 07:23:42;;;;;;;5.38;1.40;;;14.90;69.30;;;;;;5031974;28;20037;-68
2022/11/01 07:26:08;;;;;;;6.45;1.83;;;14.90;68.90;;;;;;5034275;28;20040;-68
2022/11/01 07:28:34;;;;;;;4.63;1.55;;;14.80;68.70;;;;;;5042609;28;20025;-69
2022/11/01 07:31:00;;;;;;;4.15;1.50;;;14.90;69.10;;;;;;5045276;28;20028;-69
2022/11/01 07:33:25;;;;;;;5.25;1.30;;;14.90;69.20;;;;;;5058066;28;20028;-68
2022/11/01 07:35:51;;;;;;;5.72;1.50;;;14.90;68.90;;;;;;5047562;28;20063;-69
2022/11/01 07:38:17;;;;;;;4.28;1.27;;;14.90;69.00;;;;;;5050794;28;20501;-69
2022/11/01 07:40:48;;;;;;;6.88;1.60;;;14.90;69.00;;;;;;5047443;28;20476;-69
2022/11/01 07:43:14;;;;;;;6.45;1.55;;;15.00;68.60;;;;;;5042236;28;20074;-69
2022/11/01 07:45:39;;;;;;;4.53;1.27;;;15.00;68.80;;;;;;5049084;28;20025;-68
2022/11/01 07:48:09;;;;;;;5.40;1.50;;;15.00;68.80;;;;;;5050594;28;20033;-68
2022/11/01 07:50:35;;;;;;;7.57;1.50;;;15.00;68.90;;;;;;5041713;28;20439;-72
2022/11/01 07:53:13;;;;;;;5.82;1.60;;;15.00;68.60;;;;;;5045676;28;20016;-68
2022/11/01 07:55:38;;;;;;;6.75;1.92;;;15.00;68.50;;;;;;5052035;28;20082;-69
2022/11/01 07:58:05;;;;;;;8.25;1.30;;;15.00;68.70;;;;;;5040860;28;20037;-69
2022/11/01 08:00:31;;;;;;;8.10;1.60;;;15.00;68.80;;;;;;5051828;28;20025;-69
2022/11/01 08:03:06;;;;;;;5.95;1.40;;;15.00;69.00;;;;;;5033257;28;20036;-69
2022/11/01 08:05:32;;;;;;;7.03;1.50;;;15.00;69.20;;;;;;5031026;28;20104;-69
2022/11/01 08:07:57;;;;;;;9.05;1.80;;;15.00;69.10;;;;;;5032147;28;20440;-69
2022/11/01 08:10:23;;;;;;;7.38;1.60;;;15.00;68.50;;;;;;5030301;28;20068;-69
2022/11/01 08:12:49;;;;;;;9.82;1.90;;;15.00;68.30;;;;;;5047553;28;20040;-69
2022/11/01 08:15:14;;;;;;;7.93;1.70;;;15.00;68.30;;;;;;5031498;28;20106;-68
2022/11/01 08:17:40;;;;;;;8.40;1.95;;;15.00;68.10;;;;;;5047439;28;20475;-68
2022/11/01 08:20:06;;;;;;;8.35;1.77;;;15.00;68.40;;;;;;5049637;28;20027;-68
2022/11/01 08:22:32;;;;;;;6.75;2.20;;;15.00;68.10;;;;;;5033568;28;20026;-69
2022/11/01 08:24:58;;;;;;;6.45;2.08;;;15.00;68.00;;;;;;5035460;28;20041;-69
2022/11/01 08:27:24;;;;;;;9.77;2.20;;;15.00;68.20;;;;;;5049681;28;20031;-68
2022/11/01 08:29:50;;;;;;;6.63;1.67;;;15.00;68.00;;;;;;5033008;28;20026;-68
2022/11/01 08:32:20;;;;;;;10.18;2.30;;;15.00;68.00;;;;;;5034703;28;20047;-69
2022/11/01 08:34:46;;;;;;;6.03;1.50;;;15.10;68.20;;;;;;5043861;28;20483;-69
2022/11/01 08:37:11;;;;;;;7.90;1.38;;;15.10;68.40;;;;;;5054992;28;20036;-69
2022/11/01 08:39:37;;;;;;;10.45;2.20;;;15.10;68.60;;;;;;5049310;28;20036;-68
2022/11/01 08:42:04;;;;;;;10.90;2.30;;;15.20;68.00;;;;;;5041083;28;20028;-69
2022/11/01 08:44:31;;;;;;;10.60;2.47;;;15.10;67.50;;;;;;5045045;28;20021;-69
2022/11/01 08:46:59;;;;;;;7.28;1.90;;;15.10;67.40;;;;;;5045148;28;20041;-69
2022/11/01 08:49:25;;;;;;;7.85;2.22;;;15.10;67.40;;;;;;5046298;28;20029;-69
2022/11/01 08:51:51;;;;;;;7.20;1.80;;;15.10;67.80;;;;;;5033273;28;20053;-69
2022/11/01 08:54:17;;;;;;;8.85;1.88;;;15.10;68.00;;;;;;5042529;28;20033;-70
2022/11/01 08:56:43;;;;;;;6.07;1.85;;;15.10;68.10;;;;;;5045620;28;20044;-69
2022/11/01 08:59:08;;;;;;;9.05;1.70;;;15.20;68.10;;;;;;5052387;28;20029;-70
2022/11/01 09:01:34;;;;;;;10.32;2.03;;;15.30;68.10;;;;;;5043551;28;20275;-69
2022/11/01 09:04:01;;;;;;;7.90;1.90;;;15.30;67.70;;;;;;5043687;28;20288;-69
2022/11/01 09:06:27;;;;;;;6.78;2.47;;;15.30;67.40;;;;;;5032962;28;20029;-69
2022/11/01 09:08:53;;;;;;;6.07;1.80;;;15.40;67.40;;;;;;5050521;28;20035;-69
2022/11/01 09:11:20;;;;;;;10.13;2.00;;;15.40;67.50;;;;;;5042514;28;20021;-69
2022/11/01 09:13:45;;;;;;;9.63;2.22;;;15.50;67.40;;;;;;5043705;28;20029;-69
2022/11/01 09:16:11;;;;;;;7.72;1.85;;;15.50;67.10;;;;;;5048179;28;20100;-69
2022/11/01 09:18:36;;;;;;;7.18;2.17;;;15.50;66.90;;;;;;5033738;28;20018;-69
2022/11/01 09:21:02;;;;;;;5.63;1.60;;;15.50;67.30;;;;;;5043393;28;20020;-69
2022/11/01 09:23:28;;;;;;;9.32;2.28;;;15.60;67.70;;;;;;5043721;28;20025;-69
2022/11/01 09:26:01;;;;;;;10.70;2.33;;;15.60;67.40;;;;;;5033517;28;20548;-69
2022/11/01 09:28:28;;;;;;;10.10;2.45;;;15.60;67.30;;;;;;5043605;28;20032;-69
2022/11/01 09:30:53;;;;;;;7.38;1.63;;;15.60;66.70;;;;;;5044345;28;20043;-69
2022/11/01 09:33:22;;;;;;;9.90;2.13;;;15.60;66.90;;;;;;5040917;28;20584;-69
2022/11/01 09:35:49;;;;;;;9.02;2.20;;;15.60;66.90;;;;;;5039833;28;20017;-69
2022/11/01 09:38:15;;;;;;;8.43;1.98;;;15.70;66.80;;;;;;5050546;28;20018;-69
2022/11/01 09:40:45;;;;;;;7.18;2.22;;;15.60;66.70;;;;;;5043343;28;20112;-69
2022/11/01 09:43:19;;;;;;;5.97;1.75;;;15.60;66.40;;;;;;5044491;28;20737;-70
2022/11/01 09:45:45;;;;;;;8.27;2.08;;;15.70;67.00;;;;;;5041492;28;20029;-70
2022/11/01 09:48:13;;;;;;;9.35;2.95;;;15.80;66.90;;;;;;5045581;28;20095;-69
2022/11/01 09:50:39;;;;;;;7.90;2.10;;;15.80;66.80;;;;;;5041170;28;20029;-69
2022/11/01 09:53:15;;;;;;;7.65;2.28;;;15.80;66.50;;;;;;5047797;28;20025;-69
2022/11/01 09:55:47;;;;;;;9.18;2.10;;;15.80;66.30;;;;;;5041344;28;20025;-70
2022/11/01 09:58:46;;;;;;;9.32;2.03;;;15.80;66.20;;;;;;5042639;28;20022;-69
2022/11/01 10:01:37;;;;;;;8.30;2.15;;;15.80;66.30;;;;;;5041995;28;20072;-69
2022/11/01 10:04:19;;;;;;;11.20;2.37;;;15.80;66.20;;;;;;5047018;28;20028;-69
2022/11/01 10:07:03;;;;;;;9.85;2.30;;;15.90;66.40;;;;;;5034539;28;20484;-69
2022/11/01 10:09:28;;;;;;;10.68;2.30;;;15.90;66.30;;;;;;5044960;28;20067;-69
2022/11/01 10:12:14;;;;;;;11.35;2.53;;;16.00;66.30;;;;;;5040711;28;20114;-69
2022/11/01 10:14:39;;;;;;;11.10;2.60;;;16.00;65.70;;;;;;5049486;28;20035;-69
2022/11/01 10:17:12;;;;;;;11.35;2.63;;;16.00;65.30;;;;;;5047930;28;20048;-69
2022/11/01 10:19:41;;;;;;;8.93;1.90;;;16.10;65.60;;;;;;5046634;28;20025;-69
2022/11/01 10:22:31;;;;;;;8.52;1.95;;;16.10;65.60;;;;;;5046581;28;20017;-70
2022/11/01 10:25:03;;;;;;;8.05;2.15;;;16.20;65.70;;;;;;5047478;28;20037;-69
2022/11/01 10:27:55;;;;;;;11.07;2.33;;;16.20;65.60;;;;;;5039412;28;20082;-69
2022/11/01 10:30:21;;;;;;;;;;;16.30;65.40;;;;;;5036273;28;20033;-70
2022/11/01 10:33:02;;;;;;;7.88;2.42;;;16.30;64.90;;;;;;5043991;28;20334;-69
2022/11/01 10:35:36;;;;;;;7.43;1.88;;;16.40;64.50;;;;;;5064649;28;20025;-69
2022/11/01 10:38:11;;;;;;;8.75;1.92;;;16.40;65.00;;;;;;5041516;28;20391;-69
2022/11/01 10:40:42;;;;;;;10.10;2.80;;;16.40;64.90;;;;;;5042701;28;20053;-69
2022/11/01 10:43:14;;;;;;;7.15;1.85;;;16.50;65.00;;;;;;5044859;28;20017;-69
2022/11/01 10:45:41;;;;;;;;;;;16.60;65.10;;;;;;5048385;28;20032;-69
2022/11/01 10:48:27;;;;;;;9.57;2.55;;;16.60;64.50;;;;;;5044599;28;19924;-69
2022/11/01 10:50:54;;;;;;;8.90;2.15;;;16.60;64.50;;;;;;5041564;28;20108;-69
2022/11/01 10:53:21;;;;;;;12.20;2.10;;;16.60;64.40;;;;;;5047192;28;20021;-69
2022/11/01 10:55:51;;;;;;;10.38;2.03;;;16.60;64.50;;;;;;5044575;28;20045;-70
2022/11/01 10:58:35;;;;;;;11.43;2.38;;;16.60;64.60;;;;;;5045509;28;20025;-69
2022/11/01 11:01:04;;;;;;;6.20;2.15;;;16.60;64.50;;;;;;5048069;28;20108;-70
2022/11/01 11:03:30;;;;;;;11.85;2.20;;;16.70;64.60;;;;;;5045352;28;20388;-70
2022/11/01 11:05:59;;;;;;;9.90;1.95;;;16.60;64.50;;;;;;5043290;28;20097;-70
2022/11/01 11:08:25;;;;;;;11.73;2.17;;;16.70;64.10;;;;;;5046062;28;20021;-69
2022/11/01 11:10:51;;;;;;;12.05;2.22;;;16.70;64.20;;;;;;5046141;28;20119;-70
2022/11/01 11:13:23;;;;;;;8.65;2.25;;;16.70;64.40;;;;;;5047479;28;20621;-70
2022/11/01 11:16:03;;;;;;;10.65;1.77;;;16.80;64.40;;;;;;5037126;28;20060;-69
2022/11/01 11:18:31;;;;;;;8.93;2.03;;;16.90;63.60;;;;;;5039165;28;20017;-70
2022/11/01 11:21:12;;;;;;;6.20;1.52;;;16.80;63.70;;;;;;5038684;28;20021;-69
2022/11/01 11:23:44;;;;;;;12.68;2.28;;;16.90;64.00;;;;;;5034764;28;20033;-70
2022/11/01 11:26:19;;;;;;;8.98;1.73;;;16.90;63.90;;;;;;5044639;28;20025;-70
2022/11/01 11:28:51;;;;;;;11.65;2.00;;;17.00;64.00;;;;;;5039330;28;20124;-69
2022/11/01 11:31:17;;;;;;;;;;;17.10;64.00;;;;;;5039634;28;20028;-69
2022/11/01 11:33:58;;;;;;;12.40;2.45;;;17.10;63.80;;;;;;5036869;28;19921;-69
2022/11/01 11:36:32;;;;;;;8.65;2.15;;;17.30;63.70;;;;;;5038226;28;20029;-69
2022/11/01 11:38:58;;;;;;;20.15;2.50;;;17.90;62.60;;;;;;5037906;28;20048;-70
2022/11/01 11:41:29;;;;;;;8.85;2.05;;;19.40;58.30;;;;;;5043965;28;20013;-70
2022/11/01 11:43:55;;;;;;;9.60;2.10;;;20.50;56.10;;;;;;5036472;28;20021;-70
2022/11/01 11:46:23;;;;;;;10.32;1.85;;;21.00;54.50;;;;;;5042093;28;20041;-70
2022/11/01 11:48:55;;;;;;;8.38;1.88;;;21.50;53.40;;;;;;5037340;28;20090;-70
2022/11/01 11:51:21;;;;;;;;;;;21.80;52.40;;;;;;5041688;28;20093;-70
2022/11/01 11:54:30;;;;;;;13.40;2.35;;;22.10;51.80;;;;;;5051932;28;19912;-70
2022/11/01 11:57:10;;;;;;;10.23;2.60;;;22.00;50.70;;;;;;5043629;28;20817;-69
2022/11/01 11:59:36;;;;;;;9.25;2.13;;;20.60;52.70;;;;;;5048386;28;20382;-69
2022/11/01 12:02:05;;;;;;;7.85;1.77;;;19.70;55.30;;;;;;5043244;28;20033;-70
2022/11/01 12:04:45;;;;;;;8.52;2.22;;;19.10;56.70;;;;;;5047342;28;20029;-69
2022/11/01 12:07:26;;;;;;;7.63;1.77;;;18.70;57.70;;;;;;5040007;28;20250;-69
2022/11/01 12:09:52;;;;;;;6.43;1.55;;;18.70;58.90;;;;;;5041679;28;20120;-70
2022/11/01 12:12:21;;;;;;;6.00;1.60;;;19.00;58.90;;;;;;5046746;28;20025;-70
2022/11/01 12:14:47;;;;;;;6.22;2.08;;;19.10;58.70;;;;;;5036952;28;20026;-69
2022/11/01 12:17:22;;;;;;;7.45;2.10;;;19.10;58.80;;;;;;5043526;28;20024;-70
2022/11/01 12:19:48;;;;;;;5.95;1.52;;;19.00;57.80;;;;;;5037463;28;20029;-69
2022/11/01 12:22:14;;;;;;;8.35;2.17;;;18.80;58.30;;;;;;5038723;28;20025;-70
2022/11/01 12:24:46;;;;;;;6.43;2.25;;;18.90;58.50;;;;;;5042931;28;20419;-70
2022/11/01 12:27:15;;;;;;;6.20;2.20;;;19.00;58.60;;;;;;5042363;28;20112;-70
2022/11/01 12:29:51;;;;;;;6.40;1.88;;;19.30;59.30;;;;;;5049708;28;20037;-70
2022/11/01 12:32:19;;;;;;;8.00;1.90;;;19.40;58.30;;;;;;5039226;28;20491;-69
2022/11/01 12:34:47;;;;;;;5.15;1.80;;;19.30;58.00;;;;;;5044070;28;20456;-70
2022/11/01 12:37:16;;;;;;;5.10;1.67;;;19.20;57.80;;;;;;5040237;28;20040;-69
2022/11/01 12:40:05;;;;;;;6.28;1.50;;;19.10;58.40;;;;;;5047077;28;20040;-69
2022/11/01 12:42:48;;;;;;;8.02;1.80;;;19.00;57.40;;;;;;5045432;28;20029;-69
2022/11/01 12:45:23;;;;;;;6.40;1.60;;;19.20;57.60;;;;;;5048800;28;20487;-70
2022/11/01 12:47:54;;;;;;;8.15;1.65;;;19.40;57.00;;;;;;5042895;28;20036;-69
2022/11/01 12:50:35;;;;;;;9.00;1.73;;;19.50;56.20;;;;;;5048212;28;20091;-70
2022/11/01 12:53:26;;;;;;;15.82;2.28;;;19.30;55.80;;;;;;5045726;28;20479;-68
2022/11/01 12:55:52;;;;;;;9.07;1.90;;;19.10;56.50;;;;;;5041413;28;20025;-69
2022/11/01 12:58:20;;;;;;;12.10;2.25;;;18.90;56.30;;;;;;5042987;28;20112;-68
2022/11/01 13:01:24;;;;;;;8.70;1.95;;;18.70;56.80;;;;;;5041574;28;20022;-68
2022/11/01 13:04:05;;;;;;;16.73;2.10;;;18.80;56.90;;;;;;5057249;28;20110;-68
2022/11/01 13:06:52;;;;;;;7.35;1.52;;;18.70;57.00;;;;;;5037817;28;20033;-69
2022/11/01 13:09:23;;;;;;;7.97;1.83;;;18.80;57.70;;;;;;5041691;28;20112;-69